createdAt,value
2019-01-08T00:00:47.321Z,17.27
2019-01-08T00:03:16.677Z,15.50
2019-01-08T00:05:46.029Z,15.20
2019-01-08T00:08:15.362Z,15.07
2019-01-08T00:10:45.584Z,15.00
2019-01-08T00:13:14.866Z,14.37
2019-01-08T00:15:45.292Z,13.03
2019-01-08T00:18:16.357Z,14.17
2019-01-08T00:20:45.639Z,14.13
2019-01-08T00:23:16.400Z,13.33
2019-01-08T00:25:45.678Z,13.10
2019-01-08T00:28:14.978Z,13.47
2019-01-08T00:30:44.263Z,13.30
2019-01-08T00:33:13.672Z,13.00
2019-01-08T00:35:42.935Z,13.00
2019-01-08T00:38:12.194Z,11.23
2019-01-08T00:40:41.471Z,12.07
2019-01-08T00:43:11.836Z,12.77
2019-01-08T00:45:41.117Z,13.23
2019-01-08T00:48:10.369Z,12.80
2019-01-08T00:50:39.694Z,13.10
2019-01-08T00:53:08.956Z,13.33
2019-01-08T00:55:38.213Z,12.17
2019-01-08T00:58:07.797Z,13.20
2019-01-08T01:00:37.059Z,13.03
2019-01-08T01:03:06.370Z,11.63
2019-01-08T01:05:35.672Z,12.67
2019-01-08T01:08:06.316Z,12.77
2019-01-08T01:10:35.593Z,12.83
2019-01-08T01:13:05.899Z,13.20
2019-01-08T01:15:35.220Z,12.23
2019-01-08T01:18:04.459Z,12.57
2019-01-08T01:20:33.750Z,12.83
2019-01-08T01:23:03.059Z,11.33
2019-01-08T01:25:32.352Z,11.30
2019-01-08T01:28:01.631Z,12.03
2019-01-08T01:30:30.930Z,11.13
2019-01-08T01:33:00.304Z,11.07
2019-01-08T01:35:29.605Z,10.07
2019-01-08T01:37:58.872Z,10.33
2019-01-08T01:40:28.131Z,10.40
2019-01-08T01:42:57.431Z,10.47
2019-01-08T01:45:27.290Z,10.07
2019-01-08T01:47:56.893Z,10.10
2019-01-08T01:50:26.162Z,9.57
2019-01-08T01:52:57.309Z,9.33
2019-01-08T01:55:27.670Z,9.53
2019-01-08T01:57:59.090Z,9.97
2019-01-08T02:00:28.360Z,8.73
2019-01-08T02:02:57.668Z,9.60
2019-01-08T02:05:27.173Z,8.30
2019-01-08T02:07:56.429Z,8.77
2019-01-08T02:10:25.695Z,8.10
2019-01-08T02:12:55.024Z,7.47
2019-01-08T02:15:25.257Z,6.00
2019-01-08T02:17:55.204Z,7.20
2019-01-08T02:20:24.453Z,7.03
2019-01-08T02:22:53.773Z,6.77
2019-01-08T02:25:23.030Z,6.50
2019-01-08T02:27:52.275Z,6.43
2019-01-08T02:30:21.550Z,7.03
2019-01-08T02:32:50.802Z,6.67
2019-01-08T02:35:21.520Z,6.70
2019-01-08T02:37:50.795Z,6.83
2019-01-08T02:40:20.078Z,5.83
2019-01-08T02:42:49.351Z,5.97
2019-01-08T02:45:19.654Z,5.57
2019-01-08T02:47:51.608Z,5.27
2019-01-08T02:50:20.848Z,4.93
2019-01-08T02:52:51.916Z,4.67
2019-01-08T02:55:21.190Z,6.17
2019-01-08T02:57:50.662Z,5.27
2019-01-08T03:00:19.922Z,4.63
2019-01-08T03:02:49.217Z,4.13
2019-01-08T03:05:18.486Z,4.67
2019-01-08T03:07:47.762Z,4.37
2019-01-08T03:10:17.880Z,4.43
2019-01-08T03:12:47.622Z,4.40
2019-01-08T03:15:16.909Z,3.70
2019-01-08T03:17:46.156Z,4.33
2019-01-08T03:20:15.713Z,3.57
2019-01-08T03:22:45.097Z,3.57
2019-01-08T03:25:14.353Z,3.67
2019-01-08T03:27:43.620Z,3.83
2019-01-08T03:30:12.255Z,3.07
2019-01-08T03:32:41.554Z,3.10
2019-01-08T03:35:10.804Z,3.23
2019-01-08T03:37:40.404Z,3.33
2019-01-08T03:40:09.708Z,2.70
2019-01-08T03:42:38.951Z,2.87
2019-01-08T03:45:08.341Z,2.73
2019-01-08T03:47:37.604Z,2.23
2019-01-08T03:50:07.526Z,2.67
2019-01-08T03:52:36.785Z,2.23
2019-01-08T03:55:06.340Z,2.37
2019-01-08T03:57:35.457Z,2.30
2019-01-08T04:00:05.645Z,1.83
2019-01-08T04:02:34.913Z,1.63
2019-01-08T04:05:04.446Z,1.90
2019-01-08T04:07:34.985Z,2.03
2019-01-08T04:10:04.689Z,2.60
2019-01-08T04:12:35.762Z,1.40
2019-01-08T04:15:05.097Z,1.70
2019-01-08T04:17:34.332Z,2.00
2019-01-08T04:20:05.168Z,1.80
2019-01-08T04:22:35.896Z,1.87
2019-01-08T04:25:06.408Z,1.50
2019-01-08T04:27:35.669Z,1.60
2019-01-08T04:30:05.274Z,1.30
2019-01-08T04:32:34.556Z,1.70
2019-01-08T04:35:03.812Z,1.17
2019-01-08T04:37:33.077Z,1.37
2019-01-08T04:40:02.329Z,1.00
2019-01-08T04:42:32.030Z,1.13
2019-01-08T04:45:01.272Z,1.30
2019-01-08T04:47:30.564Z,1.17
2019-01-08T04:49:59.836Z,1.07
2019-01-08T04:52:30.645Z,0.97
2019-01-08T04:54:59.954Z,0.83
2019-01-08T04:57:29.214Z,0.93
2019-01-08T04:59:59.579Z,0.80
2019-01-08T05:02:28.822Z,0.70
2019-01-08T05:04:58.135Z,0.80
2019-01-08T05:07:27.436Z,0.70
2019-01-08T05:09:56.718Z,1.00
2019-01-08T05:12:26.856Z,0.70
2019-01-08T05:14:56.141Z,0.77
2019-01-08T05:17:25.399Z,0.70
2019-01-08T05:19:54.664Z,0.77
2019-01-08T05:22:23.953Z,0.80
2019-01-08T05:24:53.226Z,0.90
2019-01-08T05:27:22.346Z,1.10
2019-01-08T05:29:51.609Z,0.93
2019-01-08T05:32:20.941Z,0.80
2019-01-08T05:34:50.188Z,0.90
2019-01-08T05:37:19.456Z,0.97
2019-01-08T05:39:48.724Z,0.93
2019-01-08T05:42:17.987Z,1.10
2019-01-08T05:44:48.136Z,1.20
2019-01-08T05:47:17.429Z,1.10
2019-01-08T05:49:46.706Z,1.40
2019-01-08T05:52:15.957Z,1.37
2019-01-08T05:54:45.226Z,1.47
2019-01-08T05:57:14.502Z,1.30
2019-01-08T05:59:43.762Z,1.70
2019-01-08T06:02:14.431Z,1.60
2019-01-08T06:04:44.066Z,1.30
2019-01-08T06:07:13.756Z,1.60
2019-01-08T06:09:43.478Z,1.60
2019-01-08T06:12:13.352Z,1.80
2019-01-08T06:14:42.615Z,2.00
2019-01-08T06:17:13.665Z,1.67
2019-01-08T06:19:43.316Z,1.40
2019-01-08T06:22:12.425Z,1.30
2019-01-08T06:24:43.993Z,1.37
2019-01-08T06:27:13.300Z,0.83
2019-01-08T06:29:42.631Z,1.20
2019-01-08T06:32:11.905Z,1.10
2019-01-08T06:34:41.206Z,0.97
2019-01-08T06:37:10.569Z,0.90
2019-01-08T06:39:42.276Z,1.10
2019-01-08T06:42:11.535Z,1.03
2019-01-08T06:44:40.816Z,1.00
2019-01-08T06:47:10.155Z,1.07
2019-01-08T06:49:39.455Z,1.00
2019-01-08T06:52:08.797Z,1.13
2019-01-08T06:54:38.052Z,1.37
2019-01-08T06:57:07.355Z,1.10
2019-01-08T06:59:36.688Z,1.20
2019-01-08T07:02:06.262Z,1.10
2019-01-08T07:04:36.982Z,1.30
2019-01-08T07:07:06.477Z,1.70
2019-01-08T07:09:35.809Z,1.60
2019-01-08T07:12:05.074Z,1.67
2019-01-08T07:14:34.347Z,1.80
2019-01-08T07:17:03.594Z,1.93
2019-01-08T07:19:32.873Z,1.57
2019-01-08T07:22:02.424Z,1.50
2019-01-08T07:24:31.729Z,1.23
2019-01-08T07:27:00.981Z,1.10
2019-01-08T07:29:30.238Z,1.40
2019-01-08T07:31:59.531Z,1.10
2019-01-08T07:34:29.394Z,1.20
2019-01-08T07:36:58.674Z,1.30
2019-01-08T07:39:27.926Z,2.10
2019-01-08T07:41:57.227Z,2.07
2019-01-08T07:44:26.489Z,1.23
2019-01-08T07:46:55.760Z,2.00
2019-01-08T07:49:25.089Z,1.40
2019-01-08T07:51:54.333Z,1.30
2019-01-08T07:54:23.641Z,1.20
2019-01-08T07:56:52.890Z,1.37
2019-01-08T07:59:22.701Z,1.40
2019-01-08T08:01:51.956Z,1.07
2019-01-08T08:04:21.221Z,1.40
2019-01-08T08:06:50.516Z,1.30
2019-01-08T08:09:19.825Z,1.30
2019-01-08T08:11:49.118Z,1.30
2019-01-08T08:14:18.381Z,1.40
2019-01-08T08:16:47.478Z,1.50
2019-01-08T08:19:16.739Z,1.47
2019-01-08T08:21:47.578Z,1.40
2019-01-08T08:24:16.819Z,1.10
2019-01-08T08:26:46.146Z,1.20
2019-01-08T08:29:15.474Z,1.20
2019-01-08T08:31:44.746Z,1.60
2019-01-08T08:34:14.026Z,1.20
2019-01-08T08:36:45.091Z,1.20
2019-01-08T08:39:15.471Z,1.30
2019-01-08T08:41:44.739Z,1.10
2019-01-08T08:44:14.354Z,1.20
2019-01-08T08:46:43.609Z,1.40
2019-01-08T08:49:12.925Z,1.10
2019-01-08T08:51:42.187Z,1.00
2019-01-08T08:54:11.532Z,1.20
2019-01-08T08:56:41.127Z,0.93
2019-01-08T08:59:10.804Z,1.60
2019-01-08T09:01:40.077Z,1.90
2019-01-08T09:04:09.418Z,1.40
2019-01-08T09:06:38.716Z,1.20
2019-01-08T09:09:08.244Z,1.20
2019-01-08T09:11:37.896Z,1.50
2019-01-08T09:14:07.165Z,1.20
2019-01-08T09:16:36.463Z,1.30
2019-01-08T09:19:05.731Z,1.73
2019-01-08T09:21:34.996Z,1.70
2019-01-08T09:24:04.287Z,1.53
2019-01-08T09:26:33.553Z,1.17
2019-01-08T09:29:02.847Z,1.40
2019-01-08T09:31:32.140Z,1.40
2019-01-08T09:34:01.433Z,1.40
2019-01-08T09:36:30.689Z,1.37
2019-01-08T09:39:00.004Z,1.30
2019-01-08T09:41:29.263Z,1.37
2019-01-08T09:43:58.529Z,1.43
2019-01-08T09:46:28.152Z,1.17
2019-01-08T09:48:57.390Z,1.10
2019-01-08T09:51:26.680Z,1.50
2019-01-08T09:53:55.930Z,1.10
2019-01-08T09:56:25.217Z,1.10
2019-01-08T09:58:54.466Z,1.10
2019-01-08T10:01:24.331Z,1.40
2019-01-08T10:03:53.721Z,1.37
2019-01-08T10:06:23.001Z,1.20
2019-01-08T10:08:52.292Z,1.80
2019-01-08T10:11:21.666Z,1.33
2019-01-08T10:13:51.044Z,1.97
2019-01-08T10:16:21.244Z,1.60
2019-01-08T10:18:50.521Z,2.00
2019-01-08T10:21:19.771Z,2.00
2019-01-08T10:23:49.040Z,1.70
2019-01-08T10:26:19.288Z,1.50
2019-01-08T10:28:48.641Z,2.17
2019-01-08T10:31:17.916Z,1.63
2019-01-08T10:33:47.178Z,2.23
2019-01-08T10:36:16.473Z,2.43
2019-01-08T10:38:45.726Z,1.50
2019-01-08T10:41:15.015Z,1.70
2019-01-08T10:43:45.889Z,1.27
2019-01-08T10:46:15.164Z,1.23
2019-01-08T10:48:44.432Z,1.30
2019-01-08T10:51:13.689Z,1.83
2019-01-08T10:53:43.285Z,1.97
2019-01-08T10:56:12.861Z,1.63
2019-01-08T10:58:42.463Z,1.87
2019-01-08T11:01:11.741Z,1.40
2019-01-08T11:03:41.028Z,1.80
2019-01-08T11:06:10.377Z,2.10
2019-01-08T11:08:39.674Z,1.60
2019-01-08T11:11:08.970Z,1.33
2019-01-08T11:13:38.230Z,1.40
2019-01-08T11:16:07.506Z,1.60
2019-01-08T11:18:36.773Z,1.30
2019-01-08T11:21:06.062Z,1.60
2019-01-08T11:23:36.532Z,1.57
2019-01-08T11:26:05.805Z,1.60
2019-01-08T11:28:35.091Z,1.10
2019-01-08T11:31:06.281Z,1.10
2019-01-08T11:33:35.542Z,1.10
2019-01-08T11:36:04.785Z,0.93
2019-01-08T11:38:34.340Z,1.50
2019-01-08T11:41:04.789Z,1.40
2019-01-08T11:43:34.061Z,1.40
2019-01-08T11:46:03.327Z,1.67
2019-01-08T11:48:32.606Z,1.13
2019-01-08T11:51:01.869Z,1.73
2019-01-08T11:53:31.349Z,1.30
2019-01-08T11:56:00.615Z,1.33
2019-01-08T11:58:29.871Z,1.30
2019-01-08T12:01:00.252Z,1.40
2019-01-08T12:03:29.855Z,1.50
2019-01-08T12:05:59.222Z,1.27
2019-01-08T12:08:28.485Z,1.37
2019-01-08T12:10:57.742Z,1.00
2019-01-08T12:13:27.546Z,1.40
2019-01-08T12:15:56.849Z,1.20
2019-01-08T12:18:26.147Z,1.33
2019-01-08T12:20:57.508Z,1.50
2019-01-08T12:23:27.228Z,1.00
2019-01-08T12:25:56.550Z,1.67
2019-01-08T12:28:25.920Z,1.40
2019-01-08T12:30:55.206Z,1.57
2019-01-08T12:33:25.420Z,1.00
2019-01-08T12:35:54.721Z,1.80
2019-01-08T12:38:25.221Z,1.13
2019-01-08T12:40:54.478Z,1.03
2019-01-08T12:43:24.125Z,0.90
2019-01-08T12:45:54.863Z,0.90
2019-01-08T12:48:24.499Z,0.70
2019-01-08T12:50:55.595Z,0.90
2019-01-08T12:53:24.837Z,0.80
2019-01-08T12:55:54.122Z,0.80
2019-01-08T12:58:23.409Z,0.80
2019-01-08T13:00:52.690Z,1.00
2019-01-08T13:03:22.279Z,0.87
2019-01-08T13:05:51.720Z,0.70
2019-01-08T13:08:22.786Z,0.70
2019-01-08T13:10:52.068Z,0.87
2019-01-08T13:13:21.367Z,0.90
2019-01-08T13:15:50.626Z,0.87
2019-01-08T13:18:19.966Z,0.70
2019-01-08T13:20:49.213Z,0.63
2019-01-08T13:23:18.500Z,1.03
2019-01-08T13:25:48.385Z,0.80
2019-01-08T13:28:17.668Z,1.07
2019-01-08T13:30:46.950Z,0.63
2019-01-08T13:33:16.233Z,0.70
2019-01-08T13:35:45.528Z,0.80
2019-01-08T13:38:14.750Z,0.70
2019-01-08T13:40:44.037Z,0.70
2019-01-08T13:43:13.307Z,0.90
2019-01-08T13:45:43.247Z,0.80
2019-01-08T13:48:12.554Z,0.90
2019-01-08T13:50:41.820Z,0.80
2019-01-08T13:53:11.083Z,0.60
2019-01-08T13:55:40.386Z,0.83
2019-01-08T13:58:09.718Z,0.67
2019-01-08T14:00:40.045Z,0.70
2019-01-08T14:03:09.337Z,0.70
2019-01-08T14:05:38.612Z,0.80
2019-01-08T14:08:07.961Z,1.27
2019-01-08T14:10:37.220Z,0.53
2019-01-08T14:13:06.535Z,0.80
2019-01-08T14:15:35.789Z,0.60
2019-01-08T14:18:05.072Z,0.70
2019-01-08T14:20:34.331Z,0.70
2019-01-08T14:23:04.015Z,0.77
2019-01-08T14:25:34.774Z,1.50
2019-01-08T14:28:04.084Z,0.90
2019-01-08T14:30:33.386Z,0.70
2019-01-08T14:33:02.903Z,0.80
2019-01-08T14:35:32.363Z,0.97
2019-01-08T14:38:03.343Z,0.70
2019-01-08T14:40:32.603Z,0.97
2019-01-08T14:43:01.898Z,0.80
2019-01-08T14:45:31.158Z,0.67
2019-01-08T14:48:00.329Z,0.70
2019-01-08T14:50:29.600Z,0.90
2019-01-08T14:52:58.947Z,0.83
2019-01-08T14:55:28.274Z,0.77
2019-01-08T14:57:59.419Z,0.60
2019-01-08T15:00:28.781Z,0.57
2019-01-08T15:02:59.907Z,0.70
2019-01-08T15:05:29.495Z,0.50
2019-01-08T15:07:58.774Z,0.70
2019-01-08T15:10:28.127Z,0.63
2019-01-08T15:12:58.318Z,0.63
2019-01-08T15:15:27.785Z,0.80
2019-01-08T15:17:57.423Z,0.73
2019-01-08T15:20:27.145Z,0.77
2019-01-08T15:22:56.413Z,0.60
2019-01-08T15:25:25.990Z,0.60
2019-01-08T15:27:55.296Z,1.10
2019-01-08T15:30:24.577Z,0.70
2019-01-08T15:32:58.336Z,0.60
2019-01-08T15:35:25.149Z,0.77
2019-01-08T15:37:54.425Z,0.70
2019-01-08T15:40:23.996Z,0.70
2019-01-08T15:42:53.259Z,0.57
2019-01-08T15:45:22.566Z,0.83
2019-01-08T15:47:51.804Z,0.50
2019-01-08T15:50:21.088Z,0.73
2019-01-08T15:52:50.325Z,0.53
2019-01-08T15:55:19.624Z,0.70
2019-01-08T15:57:48.863Z,0.60
2019-01-08T16:00:18.168Z,0.80
2019-01-08T16:02:47.697Z,1.23
2019-01-08T16:05:24.623Z,0.60
2019-01-08T16:07:53.875Z,0.60
2019-01-08T16:10:25.265Z,0.53
2019-01-08T16:12:54.560Z,0.70
2019-01-08T16:15:23.854Z,0.63
2019-01-08T16:17:53.454Z,0.67
2019-01-08T16:20:24.170Z,0.63
2019-01-08T16:22:53.465Z,0.70
2019-01-08T16:25:22.845Z,0.87
2019-01-08T16:27:52.138Z,0.90
2019-01-08T16:30:21.525Z,1.63
2019-01-08T16:32:56.556Z,0.87
2019-01-08T16:35:26.110Z,0.90
2019-01-08T16:37:55.777Z,0.73
2019-01-08T16:40:25.048Z,3.43
2019-01-08T16:42:54.688Z,1.00
2019-01-08T16:45:23.960Z,0.90
2019-01-08T16:47:53.242Z,1.00
2019-01-08T16:50:22.525Z,1.20
2019-01-08T16:52:51.820Z,1.00
2019-01-08T16:55:21.131Z,1.00
2019-01-08T16:57:51.851Z,1.20
2019-01-08T17:00:21.140Z,1.60
2019-01-08T17:02:51.631Z,1.93
2019-01-08T17:05:22.462Z,1.70
2019-01-08T17:07:51.806Z,1.53
2019-01-08T17:10:21.476Z,1.03
2019-01-08T17:12:50.784Z,1.40
2019-01-08T17:15:21.881Z,1.43
2019-01-08T17:17:51.374Z,1.60
2019-01-08T17:20:20.634Z,1.47
2019-01-08T17:22:49.898Z,1.80
2019-01-08T17:25:19.174Z,1.20
2019-01-08T17:27:48.453Z,1.40
2019-01-08T17:30:17.735Z,1.30
2019-01-08T17:32:48.078Z,1.40
2019-01-08T17:35:19.106Z,1.20
2019-01-08T17:37:48.359Z,1.10
2019-01-08T17:40:17.663Z,1.20
2019-01-08T17:42:46.936Z,1.20
2019-01-08T17:45:17.469Z,1.30
2019-01-08T17:47:46.761Z,1.20
2019-01-08T17:50:16.026Z,2.50
2019-01-08T17:52:45.725Z,1.43
2019-01-08T17:55:15.254Z,1.40
2019-01-08T17:57:44.545Z,7.00
2019-01-08T18:00:14.573Z,0.77
2019-01-08T18:02:49.120Z,1.30
2019-01-08T18:05:19.625Z,1.00
2019-01-08T18:07:50.873Z,1.07
2019-01-08T18:10:20.328Z,1.00
2019-01-08T18:12:51.549Z,1.30
2019-01-08T18:15:20.805Z,1.00
2019-01-08T18:17:50.094Z,1.00
2019-01-08T18:20:19.451Z,1.27
2019-01-08T18:22:48.736Z,1.40
2019-01-08T18:25:18.024Z,1.30
2019-01-08T18:27:47.380Z,1.07
2019-01-08T18:30:16.638Z,1.10
2019-01-08T18:32:45.891Z,0.90
2019-01-08T18:35:15.272Z,1.10
2019-01-08T18:37:44.521Z,1.30
2019-01-08T18:40:15.485Z,0.90
2019-01-08T18:42:45.362Z,1.03
2019-01-08T18:45:14.605Z,1.40
2019-01-08T18:47:43.918Z,1.33
2019-01-08T18:50:13.254Z,1.50
2019-01-08T18:52:42.561Z,1.20
2019-01-08T18:55:11.821Z,1.43
2019-01-08T18:57:41.116Z,1.50
2019-01-08T19:00:10.733Z,1.30
2019-01-08T19:02:40.520Z,1.40
2019-01-08T19:05:10.100Z,1.33
2019-01-08T19:07:39.505Z,1.43
2019-01-08T19:10:14.058Z,1.50
2019-01-08T19:12:45.009Z,1.50
2019-01-08T19:15:14.602Z,1.50
2019-01-08T19:17:44.008Z,1.40
2019-01-08T19:20:13.473Z,1.27
2019-01-08T19:22:43.044Z,2.53
2019-01-08T19:25:14.536Z,2.10
2019-01-08T19:27:44.100Z,1.57
2019-01-08T19:30:13.494Z,1.53
2019-01-08T19:32:43.152Z,1.63
2019-01-08T19:35:14.470Z,1.30
2019-01-08T19:37:43.751Z,1.50
2019-01-08T19:40:13.306Z,1.33
2019-01-08T19:42:42.976Z,1.70
2019-01-08T19:45:12.692Z,1.67
2019-01-08T19:47:41.957Z,1.10
2019-01-08T19:50:11.240Z,1.67
2019-01-08T19:52:40.585Z,1.07
2019-01-08T19:55:09.881Z,0.90
2019-01-08T19:57:39.119Z,1.90
2019-01-08T20:00:10.636Z,1.47
2019-01-08T20:02:39.923Z,0.90
2019-01-08T20:05:09.273Z,0.90
2019-01-08T20:07:38.899Z,1.00
2019-01-08T20:10:08.613Z,1.10
2019-01-08T20:12:38.859Z,1.33
2019-01-08T20:15:10.503Z,1.17
2019-01-08T20:17:39.934Z,0.83
2019-01-08T20:20:10.251Z,0.90
2019-01-08T20:22:39.541Z,0.90
2019-01-08T20:25:08.826Z,0.90
2019-01-08T20:27:38.134Z,1.17
2019-01-08T20:30:08.301Z,1.00
2019-01-08T20:32:38.159Z,1.07
2019-01-08T20:35:07.559Z,1.00
2019-01-08T20:37:36.926Z,1.10
2019-01-08T20:40:07.000Z,1.07
2019-01-08T20:42:36.713Z,1.30
2019-01-08T20:45:06.664Z,0.97
2019-01-08T20:47:36.357Z,1.47
2019-01-08T20:50:06.369Z,0.60
2019-01-08T20:52:35.663Z,1.10
2019-01-08T20:55:07.358Z,0.97
2019-01-08T20:57:39.521Z,0.90
2019-01-08T21:00:11.981Z,1.00
2019-01-08T21:02:43.992Z,0.90
2019-01-08T21:05:13.403Z,0.90
2019-01-08T21:07:42.689Z,1.10
2019-01-08T21:10:12.172Z,0.83
2019-01-08T21:12:42.928Z,1.00
2019-01-08T21:15:12.267Z,1.40
2019-01-08T21:17:41.639Z,1.30
2019-01-08T21:20:12.064Z,0.90
2019-01-08T21:22:42.421Z,1.50
2019-01-08T21:25:11.700Z,1.07
2019-01-08T21:27:41.095Z,1.00
2019-01-08T21:30:10.978Z,1.50
2019-01-08T21:32:40.423Z,1.33
2019-01-08T21:35:09.711Z,1.00
2019-01-08T21:37:38.984Z,1.67
2019-01-08T21:40:08.872Z,1.50
2019-01-08T21:42:40.304Z,1.60
2019-01-08T21:45:09.576Z,1.83
2019-01-08T21:47:38.893Z,1.57
2019-01-08T21:50:08.410Z,1.53
2019-01-08T21:52:39.462Z,1.27
2019-01-08T21:55:08.778Z,1.40
2019-01-08T21:57:41.711Z,1.57
2019-01-08T22:00:14.130Z,1.60
2019-01-08T22:02:44.627Z,1.60
2019-01-08T22:05:13.893Z,1.53
2019-01-08T22:07:43.394Z,1.57
2019-01-08T22:10:13.076Z,1.47
2019-01-08T22:12:42.366Z,1.90
2019-01-08T22:15:12.866Z,1.63
2019-01-08T22:17:42.145Z,1.40
2019-01-08T22:20:12.643Z,1.57
2019-01-08T22:22:41.968Z,1.87
2019-01-08T22:25:11.463Z,1.97
2019-01-08T22:27:42.445Z,1.83
2019-01-08T22:30:12.556Z,1.80
2019-01-08T22:32:42.068Z,1.73
2019-01-08T22:35:13.166Z,2.93
2019-01-08T22:37:42.578Z,1.87
2019-01-08T22:40:12.010Z,1.50
2019-01-08T22:42:42.888Z,2.13
2019-01-08T22:45:13.814Z,1.97
2019-01-08T22:47:43.413Z,1.93
2019-01-08T22:50:12.748Z,2.03
2019-01-08T22:52:42.319Z,1.77
2019-01-08T22:55:11.650Z,1.33
2019-01-08T22:57:41.012Z,1.70
2019-01-08T23:00:48.637Z,1.87
2019-01-08T23:03:18.057Z,1.70
2019-01-08T23:05:48.434Z,1.00
2019-01-08T23:08:18.256Z,1.33
2019-01-08T23:10:55.324Z,1.27
2019-01-08T23:13:24.736Z,1.47
2019-01-08T23:15:54.025Z,1.40
2019-01-08T23:18:23.885Z,1.33
2019-01-08T23:20:55.097Z,1.37
2019-01-08T23:23:24.525Z,1.73
2019-01-08T23:25:53.842Z,1.83
2019-01-08T23:28:23.111Z,1.47
2019-01-08T23:30:52.495Z,1.10
2019-01-08T23:33:21.766Z,1.10
2019-01-08T23:35:52.544Z,3.00
2019-01-08T23:38:21.827Z,2.57
2019-01-08T23:40:51.177Z,2.33
2019-01-08T23:43:20.783Z,1.23
2019-01-08T23:45:50.102Z,1.20
2019-01-08T23:48:20.676Z,1.73
2019-01-08T23:50:50.218Z,1.23
2019-01-08T23:53:43.031Z,1.87
2019-01-08T23:56:12.293Z,1.83
2019-01-08T23:58:41.628Z,1.00
